Time;durP1;ratioP1;P1;durP2;ratioP2;P2;SDS_P1;SDS_P2;PMS_P1;PMS_P2;Temp;Humidity;BMP_temperature;BMP_pressure;BME280_temperature;BME280_humidity;BME280_pressure;Samples;Min_cycle;Max_cycle;Signal;HPM_P1;HPM_P2
2022/07/13 00:00:11;;;;;;;7.70;5.95;;;;;;;22.12;64.76;101485.41;5013381;28;20096;-79
2022/07/13 00:02:39;;;;;;;8.43;5.10;;;;;;;22.17;65.14;101477.59;5012717;28;20475;-78
2022/07/13 00:05:06;;;;;;;10.35;5.68;;;;;;;22.13;65.15;101479.03;5012169;28;20086;-78
2022/07/13 00:07:33;;;;;;;11.75;5.93;;;;;;;21.99;65.99;101474.75;5011928;28;20046;-79
2022/07/13 00:09:59;;;;;;;12.85;5.97;;;;;;;21.97;65.74;101463.47;5013226;28;20113;-78
2022/07/13 00:12:26;;;;;;;10.90;6.10;;;;;;;22.01;66.42;101470.06;5015537;28;20128;-79
2022/07/13 00:14:53;;;;;;;9.25;5.85;;;;;;;22.00;67.22;101465.72;5014814;28;20110;-78
2022/07/13 00:17:19;;;;;;;10.05;6.88;;;;;;;21.94;68.08;101457.75;5012504;28;20128;-78
2022/07/13 00:19:47;;;;;;;14.88;5.88;;;;;;;21.99;67.93;101464.09;5012507;28;20049;-79
2022/07/13 00:22:14;;;;;;;10.45;5.85;;;;;;;22.00;67.98;101471.06;5012572;28;20085;-79
2022/07/13 00:24:41;;;;;;;14.07;6.65;;;;;;;22.00;68.31;101464.91;5013602;28;20092;-78
2022/07/13 00:27:07;;;;;;;12.63;6.40;;;;;;;21.95;68.86;101452.22;5013798;28;20128;-78
2022/07/13 00:29:34;;;;;;;9.05;6.50;;;;;;;21.84;69.34;101459.00;5015323;28;20088;-79
2022/07/13 00:32:00;;;;;;;9.40;6.25;;;;;;;21.78;69.20;101456.38;5017460;28;20050;-79
2022/07/13 00:37:03;;;;;;;13.40;6.70;;;;;;;21.73;68.94;101441.03;5021816;28;20126;-82
2022/07/13 00:39:30;;;;;;;11.57;6.05;;;;;;;21.85;68.86;101454.50;5038527;28;20132;-83
2022/07/13 00:41:56;;;;;;;8.63;5.72;;;;;;;21.85;68.61;101451.84;5039407;28;20057;-83
2022/07/13 00:44:24;;;;;;;11.93;5.95;;;;;;;21.90;68.92;101460.03;5038689;28;20379;-83
2022/07/13 00:46:54;;;;;;;14.00;5.68;;;;;;;21.81;68.32;101453.28;5039081;28;20046;-83
2022/07/13 00:49:22;;;;;;;7.15;5.68;;;;;;;21.79;68.50;101447.34;5031066;28;20050;-83
2022/07/13 00:51:49;;;;;;;7.28;5.53;;;;;;;21.81;68.84;101447.97;5002008;28;20116;-83
2022/07/13 00:54:19;;;;;;;11.00;5.38;;;;;;;21.80;69.80;101456.97;5001840;28;20053;-83
2022/07/13 00:56:46;;;;;;;10.35;5.32;;;;;;;21.80;70.36;101452.47;5000812;28;20082;-84
2022/07/13 00:59:14;;;;;;;13.45;5.47;;;;;;;21.76;71.58;101447.75;5001404;28;20422;-83
2022/07/13 01:01:41;;;;;;;12.75;5.03;;;;;;;21.62;73.02;101443.53;5002147;28;20085;-83
2022/07/13 01:04:07;;;;;;;15.98;6.00;;;;;;;21.61;72.28;101444.56;5001359;28;20515;-83
2022/07/13 01:06:34;;;;;;;10.13;4.93;;;;;;;21.46;72.50;101432.28;5001891;28;20088;-84
2022/07/13 01:09:01;;;;;;;9.60;5.57;;;;;;;21.38;73.01;101435.16;5000614;28;20093;-81
2022/07/13 01:11:31;;;;;;;8.38;5.07;;;;;;;21.35;72.98;101432.91;4996345;28;20460;-81
2022/07/13 01:13:58;;;;;;;9.80;5.55;;;;;;;21.42;73.15;101428.41;4996345;28;20137;-80
2022/07/13 01:16:26;;;;;;;12.82;5.38;;;;;;;21.37;71.87;101422.88;4996024;28;20081;-83
2022/07/13 01:18:53;;;;;;;7.85;5.07;;;;;;;21.33;71.53;101415.50;4997457;28;20462;-83
2022/07/13 01:21:20;;;;;;;11.13;5.40;;;;;;;21.38;72.03;101413.88;5001342;28;20086;-83
2022/07/13 01:23:49;;;;;;;8.65;5.00;;;;;;;21.34;71.33;101422.47;5000022;28;20093;-84
2022/07/13 01:26:15;;;;;;;7.82;4.78;;;;;;;21.31;71.82;101415.72;4999279;28;20081;-83
2022/07/13 01:28:42;;;;;;;6.75;5.65;;;;;;;21.35;71.58;101418.78;5000215;28;20110;-84
2022/07/13 01:31:09;;;;;;;8.88;4.95;;;;;;;21.28;72.79;101416.13;4998865;28;20082;-83
2022/07/13 01:33:35;;;;;;;8.48;5.22;;;;;;;21.27;72.47;101411.03;4998823;28;20057;-82
2022/07/13 01:36:02;;;;;;;13.32;4.78;;;;;;;21.23;71.90;101409.81;5007166;28;20523;-83
2022/07/13 01:38:29;;;;;;;7.00;4.93;;;;;;;21.18;72.48;101402.41;5014913;28;20100;-85
2022/07/13 01:40:57;;;;;;;8.13;4.95;;;;;;;21.17;71.34;101400.78;5014297;28;20430;-84
2022/07/13 01:43:27;;;;;;;10.57;5.07;;;;;;;21.11;70.68;101390.97;5015308;28;20114;-84
2022/07/13 01:45:54;;;;;;;7.38;4.80;;;;;;;21.02;70.50;101381.56;5014366;28;20089;-85
2022/07/13 01:48:21;;;;;;;6.53;4.47;;;;;;;20.88;71.07;101381.56;5014922;28;20089;-85
2022/07/13 01:50:48;;;;;;;9.50;4.93;;;;;;;20.79;71.55;101368.69;5015800;28;20103;-82
2022/07/13 01:53:15;;;;;;;10.13;5.05;;;;;;;20.66;72.49;101361.53;5016693;28;20058;-85
2022/07/13 01:55:42;;;;;;;8.95;4.72;;;;;;;20.64;72.62;101365.41;5015762;28;20099;-83
2022/07/13 01:58:10;;;;;;;6.97;4.70;;;;;;;20.64;72.92;101368.88;5022328;28;20069;-83
2022/07/13 02:00:36;;;;;;;9.55;5.18;;;;;;;20.62;72.85;101372.78;5019612;28;20145;-82
2022/07/13 02:03:03;;;;;;;7.68;4.60;;;;;;;20.75;72.90;101376.25;5018093;28;20081;-82
2022/07/13 02:05:31;;;;;;;7.40;4.97;;;;;;;20.81;72.85;101370.09;5017823;28;20530;-85
2022/07/13 02:07:57;;;;;;;9.85;5.03;;;;;;;20.80;72.67;101357.00;5018257;28;20558;-84
2022/07/13 02:10:34;;;;;;;6.85;4.72;;;;;;;20.73;72.55;101365.00;5016713;28;20080;-84
2022/07/13 02:13:01;;;;;;;10.98;4.78;;;;;;;20.82;72.14;101361.09;5017356;28;20122;-81
2022/07/13 02:15:29;;;;;;;6.57;4.82;;;;;;;20.87;71.92;101360.47;5016245;28;20495;-82
2022/07/13 02:17:56;;;;;;;12.57;4.53;;;;;;;20.91;71.94;101358.22;5015005;28;20050;-82
2022/07/13 02:20:22;;;;;;;7.18;4.95;;;;;;;20.91;71.77;101360.88;5016249;28;20171;-81
2022/07/13 02:22:49;;;;;;;7.63;4.40;;;;;;;20.83;71.84;101357.41;5016560;28;20132;-82
2022/07/13 02:25:16;;;;;;;5.97;4.50;;;;;;;20.83;72.17;101360.06;5016722;28;20056;-82
2022/07/13 02:27:43;;;;;;;5.60;4.30;;;;;;;20.90;72.05;101359.25;5017828;28;20137;-82
2022/07/13 02:30:11;;;;;;;8.65;5.05;;;;;;;20.88;72.31;101348.81;5021555;28;20056;-84
2022/07/13 02:32:40;;;;;;;10.68;4.55;;;;;;;20.90;72.45;101351.28;5032319;28;20046;-85
2022/07/13 02:35:07;;;;;;;6.57;4.40;;;;;;;20.87;73.08;101353.31;5035915;28;20060;-84
2022/07/13 02:37:34;;;;;;;5.90;4.80;;;;;;;20.87;72.99;101350.66;5023526;28;20050;-83
2022/07/13 02:40:01;;;;;;;11.32;4.60;;;;;;;20.82;73.00;101345.13;5015742;28;20136;-83
2022/07/13 02:42:28;;;;;;;8.68;4.65;;;;;;;20.77;72.71;101352.94;5017620;28;20206;-84
2022/07/13 02:44:54;;;;;;;7.13;4.78;;;;;;;20.83;72.71;101345.94;5018256;28;20082;-83
2022/07/13 02:47:21;;;;;;;5.97;4.20;;;;;;;20.82;72.45;101353.13;5022205;28;20061;-83
2022/07/13 02:49:51;;;;;;;5.25;4.50;;;;;;;20.75;72.53;101349.66;5020967;28;20168;-83
2022/07/13 02:52:18;;;;;;;6.55;4.30;;;;;;;20.80;72.63;101341.84;5015458;28;20046;-81
2022/07/13 02:54:45;;;;;;;5.07;4.13;;;;;;;20.83;72.60;101345.94;5019367;28;20420;-82
2022/07/13 02:57:11;;;;;;;6.25;4.32;;;;;;;20.83;71.96;101341.44;5018497;28;20106;-82
2022/07/13 02:59:38;;;;;;;5.38;4.40;;;;;;;20.83;71.97;101338.78;5018161;28;20053;-82
2022/07/13 03:02:06;;;;;;;5.70;4.22;;;;;;;20.82;71.20;101331.84;5019565;28;20065;-82
2022/07/13 03:04:33;;;;;;;6.05;3.80;;;;;;;20.82;71.10;101329.19;5018300;28;20100;-81
2022/07/13 03:07:01;;;;;;;9.15;4.20;;;;;;;20.79;70.97;101323.47;5020743;28;20089;-82
2022/07/13 03:09:28;;;;;;;6.82;4.05;;;;;;;20.77;70.91;101330.84;5018053;28;20144;-81
2022/07/13 03:11:54;;;;;;;4.90;4.13;;;;;;;20.79;70.86;101313.66;5017479;28;20506;-82
2022/07/13 03:14:21;;;;;;;5.13;4.22;;;;;;;20.76;70.84;101319.38;5014717;28;20050;-81
2022/07/13 03:16:49;;;;;;;7.93;4.03;;;;;;;20.72;70.57;101320.00;5015406;28;20141;-81
2022/07/13 03:19:15;;;;;;;5.43;4.10;;;;;;;20.65;71.23;101309.38;5014293;28;20054;-82
2022/07/13 03:21:42;;;;;;;7.93;4.13;;;;;;;20.65;71.21;101319.19;5014186;28;20545;-81
2022/07/13 03:24:10;;;;;;;7.93;4.20;;;;;;;20.64;71.19;101315.72;5014458;28;20122;-82
2022/07/13 03:26:36;;;;;;;7.30;3.70;;;;;;;20.66;71.09;101324.28;5014445;28;20537;-82
2022/07/13 03:29:03;;;;;;;5.57;4.38;;;;;;;20.65;70.86;101325.31;5019004;28;20050;-82
2022/07/13 03:31:30;;;;;;;5.47;4.47;;;;;;;20.61;70.97;101325.94;5027328;28;20053;-83
2022/07/13 03:33:56;;;;;;;8.55;4.35;;;;;;;20.64;70.59;101326.34;5017909;28;20143;-84
2022/07/13 03:36:23;;;;;;;7.28;4.38;;;;;;;20.67;70.33;101331.25;5014418;28;20132;-83
2022/07/13 03:38:49;;;;;;;4.85;4.03;;;;;;;20.71;69.85;101321.84;5014030;28;20079;-84
2022/07/13 03:41:18;;;;;;;7.32;4.30;;;;;;;20.59;70.34;101320.81;5013419;28;20084;-84
2022/07/13 03:43:44;;;;;;;6.38;4.40;;;;;;;20.60;70.67;101325.13;5014998;28;20092;-83
2022/07/13 03:46:11;;;;;;;6.00;4.63;;;;;;;20.63;70.95;101319.38;5016518;28;20533;-83
2022/07/13 03:48:37;;;;;;;6.13;4.50;;;;;;;20.66;70.99;101332.28;5015630;28;20085;-84
2022/07/13 03:51:04;;;;;;;7.80;4.50;;;;;;;20.69;71.26;101331.06;5014773;28;20530;-84
2022/07/13 03:53:32;;;;;;;8.00;4.75;;;;;;;20.67;71.45;101327.78;5015621;28;20110;-84
2022/07/13 03:55:58;;;;;;;6.70;4.43;;;;;;;20.66;71.85;101328.81;5015962;28;20521;-83
2022/07/13 03:58:26;;;;;;;7.13;5.10;;;;;;;20.58;72.15;101324.50;5015800;28;20050;-81
2022/07/13 04:00:53;;;;;;;7.25;4.72;;;;;;;20.66;72.33;101324.28;5020287;28;20061;-82
2022/07/13 04:03:20;;;;;;;6.97;5.43;;;;;;;20.65;72.62;101322.66;5021696;28;20134;-82
2022/07/13 04:05:47;;;;;;;7.90;5.45;;;;;;;20.67;72.48;101320.63;5026583;28;20447;-82
2022/07/13 04:08:13;;;;;;;10.05;6.20;;;;;;;20.66;72.93;101321.63;5022759;28;20134;-82
2022/07/13 04:10:40;;;;;;;8.55;5.90;;;;;;;20.68;73.16;101330.22;5021571;28;20077;-81
2022/07/13 04:13:07;;;;;;;8.00;6.28;;;;;;;20.74;72.89;101332.06;5020195;28;20099;-82
2022/07/13 04:15:35;;;;;;;7.43;6.35;;;;;;;20.74;72.83;101329.41;5020726;28;20621;-83
2022/07/13 04:18:01;;;;;;;11.63;6.55;;;;;;;20.72;72.88;101330.63;5020757;28;20081;-82
2022/07/13 04:20:28;;;;;;;8.98;6.38;;;;;;;20.72;73.06;101336.78;5018641;28;20085;-83
2022/07/13 04:22:55;;;;;;;9.10;6.53;;;;;;;20.70;72.88;101341.47;5016954;28;20132;-83
2022/07/13 04:25:22;;;;;;;6.72;6.03;;;;;;;20.69;73.21;101339.03;5017527;28;20058;-82
2022/07/13 04:27:49;;;;;;;13.73;6.75;;;;;;;20.65;72.76;101330.63;5021595;28;20090;-83
2022/07/13 04:30:15;;;;;;;9.73;6.05;;;;;;;20.58;73.37;101332.47;5018749;28;20530;-82
2022/07/13 04:32:43;;;;;;;8.43;5.55;;;;;;;20.55;73.38;101316.94;5020579;28;20092;-83
2022/07/13 04:35:10;;;;;;;10.25;6.05;;;;;;;20.59;73.01;101320.81;5019565;28;20084;-82
2022/07/13 04:37:36;;;;;;;8.23;5.53;;;;;;;20.58;73.51;101327.16;5019292;28;20112;-83
2022/07/13 04:40:04;;;;;;;8.60;5.80;;;;;;;20.60;72.95;101324.28;5019958;28;20054;-83
2022/07/13 04:42:31;;;;;;;12.18;6.40;;;;;;;20.63;73.23;101324.72;5019111;28;20046;-83
2022/07/13 04:44:57;;;;;;;10.30;5.35;;;;;;;20.62;72.70;101323.06;5020051;28;20085;-83
2022/07/13 04:47:24;;;;;;;8.70;5.55;;;;;;;20.72;72.68;101322.66;5019496;28;20046;-83
2022/07/13 04:49:52;;;;;;;5.60;5.00;;;;;;;20.77;72.37;101322.88;5026132;28;20065;-84
2022/07/13 04:52:18;;;;;;;6.95;4.78;;;;;;;20.76;71.91;101318.56;5042408;28;20124;-85
2022/07/13 04:54:45;;;;;;;9.57;5.30;;;;;;;20.84;72.24;101327.13;5042606;28;20076;-85
2022/07/13 04:57:12;;;;;;;6.10;4.68;;;;;;;20.83;72.42;101327.34;5041304;28;20088;-85
2022/07/13 04:59:39;;;;;;;8.15;5.25;;;;;;;20.79;72.94;101331.47;5041606;28;20103;-85
2022/07/13 05:02:05;;;;;;;6.78;4.90;;;;;;;20.84;73.62;101332.44;5037177;28;20474;-86
2022/07/13 05:04:32;;;;;;;9.73;4.90;;;;;;;20.84;73.54;101326.31;5035690;28;20080;-85
2022/07/13 05:07:00;;;;;;;8.10;5.00;;;;;;;20.90;74.26;101336.13;5047493;28;20068;-83
2022/07/13 05:09:27;;;;;;;5.55;4.50;;;;;;;21.05;74.78;101333.25;5046387;28;20049;-83
2022/07/13 05:11:54;;;;;;;10.02;4.80;;;;;;;21.12;75.37;101342.03;5042697;28;20069;-85
2022/07/13 05:14:20;;;;;;;7.22;5.22;;;;;;;21.11;75.94;101348.38;5040897;28;20517;-85
2022/07/13 05:16:47;;;;;;;8.20;4.78;;;;;;;21.01;76.33;101337.34;5039987;28;20085;-83
2022/07/13 05:19:14;;;;;;;11.20;5.03;;;;;;;20.96;77.69;101334.47;5047963;28;20093;-83
2022/07/13 05:21:40;;;;;;;10.68;4.70;;;;;;;20.94;76.75;101329.38;5049914;28;20081;-83
2022/07/13 05:24:08;;;;;;;8.45;5.00;;;;;;;21.00;76.78;101328.53;5048009;28;20072;-83
2022/07/13 05:26:36;;;;;;;8.02;4.93;;;;;;;21.13;76.96;101327.72;5047545;28;20064;-82
2022/07/13 05:29:04;;;;;;;12.52;4.85;;;;;;;21.20;77.20;101317.88;5045916;28;20486;-82
2022/07/13 05:31:31;;;;;;;9.85;5.22;;;;;;;21.15;77.01;101313.16;5046673;28;20049;-83
2022/07/13 05:33:57;;;;;;;6.28;4.90;;;;;;;21.14;76.60;101308.06;5046349;28;20053;-83
2022/07/13 05:36:24;;;;;;;11.57;5.20;;;;;;;21.17;75.93;101302.31;5043923;28;20049;-84
2022/07/13 05:38:51;;;;;;;12.70;5.03;;;;;;;21.10;75.75;101307.66;5043036;28;20109;-84
2022/07/13 05:41:18;;;;;;;6.63;4.78;;;;;;;21.15;74.93;101301.69;5040299;28;20510;-83
2022/07/13 05:43:47;;;;;;;8.75;5.05;;;;;;;21.17;75.38;101303.13;5040546;28;20057;-83
2022/07/13 05:46:13;;;;;;;9.80;4.78;;;;;;;21.21;74.86;101308.88;5040483;28;20057;-84
2022/07/13 05:48:40;;;;;;;10.45;4.78;;;;;;;21.33;74.62;101307.19;5040440;28;20041;-82
2022/07/13 05:51:07;;;;;;;9.25;4.97;;;;;;;21.42;73.52;101318.41;5040777;28;20132;-82
2022/07/13 05:53:33;;;;;;;8.27;5.15;;;;;;;21.51;73.26;101310.00;5040529;28;20508;-81
2022/07/13 05:56:00;;;;;;;14.13;5.20;;;;;;;21.50;72.36;101311.00;5040366;28;20156;-81
2022/07/13 05:58:28;;;;;;;10.68;4.85;;;;;;;21.62;72.41;101310.34;5038718;28;20077;-84
2022/07/13 06:00:55;;;;;;;8.82;5.00;;;;;;;21.91;71.92;101307.13;5037948;28;20091;-86
2022/07/13 06:03:24;;;;;;;9.63;5.05;;;;;;;22.14;71.10;101307.41;5038736;28;20103;-85
2022/07/13 06:05:51;;;;;;;8.43;4.97;;;;;;;22.33;70.33;101300.28;5039036;28;20053;-84
2022/07/13 06:08:17;;;;;;;9.18;4.93;;;;;;;22.40;69.85;101306.38;5037733;28;20144;-85
2022/07/13 06:10:44;;;;;;;8.35;5.10;;;;;;;22.96;68.55;101305.50;5037352;28;20077;-85
2022/07/13 06:13:11;;;;;;;11.35;5.47;;;;;;;23.17;67.49;101302.38;5036839;28;20085;-84
2022/07/13 06:15:39;;;;;;;8.73;5.10;;;;;;;23.50;66.39;101310.00;5036696;28;20073;-84
2022/07/13 06:18:06;;;;;;;9.93;5.20;;;;;;;24.38;63.77;101296.03;5037313;28;20049;-84
2022/07/13 06:20:32;;;;;;;9.52;4.90;;;;;;;25.33;60.43;101276.16;5034798;28;20077;-86
2022/07/13 06:23:11;;;;;;;9.02;4.82;;;;;;;25.56;58.51;101265.34;5034279;28;20486;-83
2022/07/13 06:25:38;;;;;;;10.32;4.70;;;;;;;25.03;60.37;101279.06;5034951;28;20486;-84
2022/07/13 06:28:05;;;;;;;9.88;4.75;;;;;;;24.76;60.65;101287.53;5033958;28;20137;-86
2022/07/13 06:30:32;;;;;;;6.85;4.82;;;;;;;24.88;60.84;101282.19;5034423;28;20100;-82
2022/07/13 06:33:00;;;;;;;15.68;4.88;;;;;;;25.23;60.22;101287.47;5044212;28;20069;-82
2022/07/13 06:35:27;;;;;;;11.65;4.88;;;;;;;24.84;61.06;101275.66;5036308;28;20140;-83
2022/07/13 06:37:53;;;;;;;12.75;4.55;;;;;;;25.16;59.99;101278.75;5033665;28;20080;-83
2022/07/13 06:40:20;;;;;;;13.10;4.75;;;;;;;24.94;60.29;101275.88;5045662;28;20053;-84
2022/07/13 06:42:47;;;;;;;5.55;4.40;;;;;;;24.56;60.85;101273.72;5046523;28;20053;-84
2022/07/13 06:45:14;;;;;;;7.97;4.15;;;;;;;24.95;60.34;101287.41;5046154;28;20049;-84
2022/07/13 06:47:42;;;;;;;12.45;4.90;;;;;;;25.13;59.71;101285.41;5039633;28;20084;-85
2022/07/13 06:50:11;;;;;;;10.00;4.45;;;;;;;25.29;58.52;101278.50;5036174;28;20417;-86
2022/07/13 06:52:40;;;;;;;7.25;4.13;;;;;;;26.27;56.76;101273.84;5032635;28;20128;-85
2022/07/13 06:55:07;;;;;;;9.07;4.20;;;;;;;27.83;53.35;101282.34;5036923;28;20101;-85
2022/07/13 06:57:34;;;;;;;11.68;4.50;;;;;;;28.99;49.89;101278.88;5039976;28;20055;-85
2022/07/13 07:00:01;;;;;;;8.50;4.13;;;;;;;28.80;49.87;101269.59;5038717;28;20191;-84
2022/07/13 07:02:27;;;;;;;8.35;3.90;;;;;;;28.33;50.25;101275.78;5043114;28;20081;-83
2022/07/13 07:04:54;;;;;;;7.13;3.88;;;;;;;28.24;50.14;101288.09;5041382;28;20533;-86
2022/07/13 07:07:22;;;;;;;5.68;3.53;;;;;;;28.25;50.57;101281.63;5040231;28;20240;-85
2022/07/13 07:09:49;;;;;;;9.45;4.50;;;;;;;28.20;50.53;101282.38;5044241;28;20109;-84
2022/07/13 07:12:16;;;;;;;9.05;4.10;;;;;;;27.83;49.66;101265.38;5043766;28;20046;-84
2022/07/13 07:14:42;;;;;;;7.65;4.05;;;;;;;28.00;50.02;101263.38;5047270;28;20089;-86
2022/07/13 07:17:09;;;;;;;9.52;4.03;;;;;;;28.12;49.90;101279.34;5048249;28;20045;-84
2022/07/13 07:19:36;;;;;;;8.07;3.92;;;;;;;28.16;50.59;101278.56;5047448;28;20048;-84
2022/07/13 07:22:03;;;;;;;9.13;3.50;;;;;;;27.90;50.64;101272.16;5044332;28;20081;-85
2022/07/13 07:24:31;;;;;;;8.98;3.72;;;;;;;27.31;51.69;101266.72;5043512;28;20053;-83
2022/07/13 07:26:58;;;;;;;6.40;4.40;;;;;;;27.24;53.13;101268.78;5047093;28;20077;-80
2022/07/13 07:29:24;;;;;;;7.43;3.97;;;;;;;26.83;52.83;101272.81;5047100;28;20151;-85
2022/07/13 07:31:51;;;;;;;4.70;3.80;;;;;;;26.69;54.20;101272.34;5042212;28;20049;-85
2022/07/13 07:34:18;;;;;;;9.38;4.15;;;;;;;26.85;54.87;101257.25;5043352;28;20113;-85
2022/07/13 07:36:44;;;;;;;12.10;4.47;;;;;;;26.97;53.44;101267.91;5041666;28;20077;-85
2022/07/13 07:39:12;;;;;;;7.60;4.00;;;;;;;27.05;53.00;101265.59;5042426;28;20128;-86
2022/07/13 07:41:40;;;;;;;4.78;3.80;;;;;;;27.08;52.81;101269.66;5043003;28;20060;-84
2022/07/13 07:44:08;;;;;;;7.15;3.90;;;;;;;26.98;53.14;101264.97;5045653;28;20081;-84
2022/07/13 07:46:34;;;;;;;8.38;4.00;;;;;;;26.82;52.00;101259.63;5043449;28;20155;-83
2022/07/13 07:49:03;;;;;;;7.38;3.85;;;;;;;26.61;50.86;101264.72;5041603;28;20116;-84
2022/07/13 07:51:29;;;;;;;6.68;3.78;;;;;;;26.42;53.55;101260.69;5035332;28;20095;-86
2022/07/13 07:53:56;;;;;;;5.30;3.78;;;;;;;26.22;54.69;101266.53;5038929;28;20132;-85
2022/07/13 07:56:25;;;;;;;13.70;4.32;;;;;;;26.00;58.32;101279.81;5034450;28;20056;-86
2022/07/13 07:58:53;;;;;;;7.78;4.35;;;;;;;25.66;61.01;101295.03;5032025;28;20152;-86
2022/07/13 08:01:20;;;;;;;6.05;4.22;;;;;;;25.35;60.90;101299.00;5032519;28;20077;-85
2022/07/13 08:03:47;;;;;;;7.45;4.63;;;;;;;25.28;62.94;101302.84;5031826;28;20049;-86
2022/07/13 08:06:16;;;;;;;9.07;4.07;;;;;;;25.18;62.74;101300.78;5032606;28;20174;-87
2022/07/13 08:08:42;;;;;;;11.35;4.68;;;;;;;25.26;64.84;101310.31;5033201;28;20490;-87
2022/07/13 08:11:09;;;;;;;8.02;4.78;;;;;;;25.29;62.91;101283.84;5033377;28;20089;-86
2022/07/13 08:13:37;;;;;;;7.78;4.43;;;;;;;25.21;65.15;101286.91;5033387;28;20053;-85
2022/07/13 08:16:06;;;;;;;5.25;4.28;;;;;;;25.40;64.32;101269.63;5033818;28;20148;-84
2022/07/13 08:18:35;;;;;;;8.27;4.40;;;;;;;25.57;63.02;101247.41;5034402;28;20089;-86
2022/07/13 08:21:12;;;;;;;10.73;4.40;;;;;;;25.96;63.06;101225.09;5034035;28;20076;-84
2022/07/13 08:23:55;;;;;;;7.25;4.35;;;;;;;26.32;63.21;101239.88;5032901;28;20084;-85
2022/07/13 08:26:25;;;;;;;6.18;4.20;;;;;;;27.44;60.10;101252.88;5034349;28;20049;-85
2022/07/13 08:28:53;;;;;;;6.38;4.18;;;;;;;29.19;55.12;101254.69;5033344;28;20144;-85
2022/07/13 08:31:22;;;;;;;8.07;4.00;;;;;;;30.12;52.01;101254.59;5034203;28;20053;-85
2022/07/13 08:39:19;;;;;;;7.00;3.78;;;;;;;31.24;44.22;101243.47;5036935;28;20076;-82
2022/07/13 08:41:46;;;;;;;9.48;3.70;;;;;;;30.25;45.28;101234.31;5038547;28;20113;-83
2022/07/13 08:44:13;;;;;;;5.57;3.58;;;;;;;29.64;43.34;101224.34;5039939;28;20073;-81
2022/07/13 08:46:41;;;;;;;7.22;3.30;;;;;;;29.30;43.72;101232.06;5039926;28;20129;-82
2022/07/13 08:49:12;;;;;;;8.70;3.55;;;;;;;28.85;43.80;101223.84;5038689;28;20045;-82
2022/07/13 08:51:44;;;;;;;8.15;3.78;;;;;;;28.83;43.60;101234.88;5039576;28;20119;-82
2022/07/13 08:57:59;;;;;;;8.50;4.10;;;;;;;28.71;43.49;101229.69;5035861;28;20057;-82
2022/07/13 09:00:26;;;;;;;9.85;4.00;;;;;;;29.82;42.35;101224.88;5021573;28;20057;-84
2022/07/13 09:03:02;;;;;;;13.63;4.03;;;;;;;29.82;42.10;101217.59;5041920;28;20080;-81
2022/07/13 09:05:34;;;;;;;11.52;3.78;;;;;;;29.09;42.67;101216.13;5042184;28;20041;-83
2022/07/13 09:08:07;;;;;;;7.78;3.70;;;;;;;29.02;43.36;101230.66;5041318;28;20456;-83
2022/07/13 09:11:05;;;;;;;8.10;3.97;;;;;;;29.02;42.97;101235.22;5042879;28;20132;-84
2022/07/13 09:13:38;;;;;;;8.15;3.45;;;;;;;29.24;42.20;101230.47;5042052;28;20053;-86
2022/07/13 09:16:22;;;;;;;5.25;3.70;;;;;;;29.20;42.31;101210.50;5044919;28;20132;-85
2022/07/13 09:18:53;;;;;;;8.68;4.13;;;;;;;29.19;42.66;101240.41;5044837;28;20049;-83
2022/07/13 09:21:20;;;;;;;8.98;3.88;;;;;;;29.34;43.41;101238.56;5043297;28;20042;-85
2022/07/13 09:23:51;;;;;;;10.63;3.85;;;;;;;29.27;42.41;101243.41;5043620;28;20045;-85
2022/07/13 09:26:18;;;;;;;9.80;4.00;;;;;;;29.43;41.74;101246.16;5039594;28;20465;-85
2022/07/13 09:28:47;;;;;;;7.63;3.85;;;;;;;29.24;42.05;101241.25;5029038;28;20048;-85
2022/07/13 09:31:15;;;;;;;7.97;4.20;;;;;;;28.96;41.96;101236.28;5034984;28;20045;-85
2022/07/13 09:33:44;;;;;;;8.65;3.90;;;;;;;29.27;40.91;101227.25;5035584;28;20049;-84
2022/07/13 09:36:14;;;;;;;8.38;3.88;;;;;;;29.32;40.45;101229.91;5037489;28;20055;-86
2022/07/13 09:38:42;;;;;;;5.45;3.85;;;;;;;29.13;41.13;101234.19;5037950;28;20085;-85
2022/07/13 09:41:21;;;;;;;5.35;3.60;;;;;;;29.49;39.94;101237.00;5037262;28;20041;-86
2022/07/13 09:46:51;;;;;;;9.68;3.80;;;;;;;29.98;40.04;101232.72;5036296;28;20474;-85
2022/07/13 09:49:23;;;;;;;6.15;3.88;;;;;;;30.17;40.44;101234.91;5018300;28;20109;-86
2022/07/13 09:51:57;;;;;;;6.93;4.05;;;;;;;30.35;39.71;101227.00;5040712;28;20057;-85
2022/07/13 09:54:26;;;;;;;8.88;3.78;;;;;;;30.47;40.22;101232.13;5040840;28;20514;-87
2022/07/13 09:56:55;;;;;;;5.28;3.65;;;;;;;30.34;39.14;101229.97;5046120;28;20137;-86
2022/07/13 09:59:23;;;;;;;5.28;3.85;;;;;;;30.04;39.99;101231.66;5036057;28;20057;-85
2022/07/13 10:01:51;;;;;;;8.52;4.00;;;;;;;29.40;40.79;101240.19;5038220;28;20087;-85
2022/07/13 10:04:19;;;;;;;10.40;4.30;;;;;;;29.05;41.01;101238.22;5042847;28;20049;-84
2022/07/13 10:06:46;;;;;;;7.70;4.13;;;;;;;28.83;41.43;101231.41;5045374;28;20049;-83
2022/07/13 10:09:17;;;;;;;9.07;4.30;;;;;;;28.87;41.90;101227.09;5043979;28;20056;-83
2022/07/13 10:11:44;;;;;;;5.80;3.80;;;;;;;28.93;41.37;101239.50;5038016;28;20053;-84
2022/07/13 10:14:11;;;;;;;7.88;4.10;;;;;;;28.95;41.76;101237.34;5032748;28;20440;-82
2022/07/13 10:16:39;;;;;;;5.90;4.18;;;;;;;28.80;41.94;101237.28;5040062;28;20053;-87
2022/07/13 10:19:09;;;;;;;13.45;4.60;;;;;;;28.82;41.96;101235.97;5035510;28;20077;-85
2022/07/13 10:21:48;;;;;;;12.57;4.10;;;;;;;28.68;41.82;101232.91;5034981;28;20111;-86
2022/07/13 10:24:18;;;;;;;6.30;4.22;;;;;;;28.71;42.33;101245.84;5034936;28;20045;-85
2022/07/13 10:26:49;;;;;;;6.95;4.03;;;;;;;28.72;41.71;101241.28;5035288;28;20492;-86
2022/07/13 10:29:16;;;;;;;9.15;4.35;;;;;;;28.73;42.44;101234.81;5039863;28;20128;-82
2022/07/13 10:31:44;;;;;;;5.93;4.40;;;;;;;28.97;42.44;101245.97;5038791;28;20049;-83
2022/07/13 10:34:13;;;;;;;5.32;4.00;;;;;;;29.10;42.00;101252.78;5039774;28;20049;-84
2022/07/13 10:36:55;;;;;;;8.57;4.00;;;;;;;29.09;42.50;101259.25;5039803;28;20506;-83
2022/07/13 10:39:24;;;;;;;6.63;4.28;;;;;;;29.28;42.45;101247.72;5035554;28;20496;-82
2022/07/13 10:42:00;;;;;;;7.70;3.90;;;;;;;29.78;41.51;101250.78;5035907;28;20486;-84
2022/07/13 10:44:32;;;;;;;8.00;4.07;;;;;;;29.82;41.90;101252.66;5021354;28;20041;-84
2022/07/13 10:47:03;;;;;;;6.57;3.85;;;;;;;29.43;41.77;101257.75;5034783;28;20057;-82
2022/07/13 10:49:44;;;;;;;8.48;4.55;;;;;;;29.29;42.25;101254.75;5033733;28;20041;-84
2022/07/13 10:52:53;;;;;;;5.90;4.03;;;;;;;29.27;42.43;101248.81;5040696;28;20060;-83
2022/07/13 10:55:32;;;;;;;7.43;4.13;;;;;;;29.21;43.03;101252.56;5036869;28;20096;-81
2022/07/13 10:58:00;;;;;;;13.55;4.30;;;;;;;29.23;43.29;101250.41;5040419;28;20118;-83
2022/07/13 11:00:44;;;;;;;8.25;4.28;;;;;;;29.71;43.04;101253.75;5040550;28;20057;-84
2022/07/13 11:03:30;;;;;;;6.85;4.18;;;;;;;30.21;42.21;101236.78;5033254;28;20103;-85
2022/07/13 11:06:08;;;;;;;9.00;4.53;;;;;;;30.10;42.09;101245.16;5033904;28;20136;-86
2022/07/13 11:08:35;;;;;;;9.00;4.20;;;;;;;30.12;42.73;101248.38;5033678;28;20042;-86
2022/07/13 11:11:12;;;;;;;4.88;4.13;;;;;;;29.85;42.82;101249.44;5043000;28;20122;-87
2022/07/13 11:13:39;;;;;;;6.68;3.80;;;;;;;29.71;43.22;101248.38;5031319;28;20063;-85
2022/07/13 11:16:07;;;;;;;7.18;4.10;;;;;;;29.73;43.68;101238.13;5034165;28;20132;-84
2022/07/13 11:18:36;;;;;;;8.25;4.20;;;;;;;29.76;43.60;101223.28;5033531;28;20056;-86
2022/07/13 11:21:05;;;;;;;5.80;4.00;;;;;;;29.60;44.01;101225.16;5033068;28;20544;-84
2022/07/13 11:26:38;;;;;;;6.90;3.90;;;;;;;29.57;43.50;101247.25;5034978;28;20070;-84
2022/07/13 11:29:14;;;;;;;6.03;3.72;;;;;;;30.13;43.58;101233.81;5031070;28;20453;-85
2022/07/13 11:31:41;;;;;;;7.75;3.75;;;;;;;30.55;42.56;101236.97;5025778;28;20160;-85
2022/07/13 11:34:11;;;;;;;9.75;4.18;;;;;;;30.34;42.08;101216.50;5035106;28;20078;-85
2022/07/13 11:36:41;;;;;;;6.40;3.85;;;;;;;30.71;42.23;101228.84;5029681;28;20399;-86
2022/07/13 11:39:22;;;;;;;4.93;3.70;;;;;;;30.77;41.48;101222.31;5033586;28;20141;-85
2022/07/13 11:41:51;;;;;;;6.15;3.67;;;;;;;30.70;41.20;101219.94;5034940;28;20041;-83
2022/07/13 11:44:18;;;;;;;7.13;3.40;;;;;;;30.45;41.81;101209.19;5036292;28;20045;-84
2022/07/13 11:46:46;;;;;;;6.00;3.20;;;;;;;30.54;42.18;101221.84;5035305;28;20053;-84